sensor_id;sensor_type;location;lat;lon;timestamp;temperature;humidity
11647;DHT22;5880;52.342;9.662;2022-11-15T00:00:54;10.70;68.20
11647;DHT22;5880;52.342;9.662;2022-11-15T00:03:24;10.80;68.10
11647;DHT22;5880;52.342;9.662;2022-11-15T00:05:51;10.70;68.10
11647;DHT22;5880;52.342;9.662;2022-11-15T00:08:17;10.70;68.70
11647;DHT22;5880;52.342;9.662;2022-11-15T00:10:46;10.70;68.00
11647;DHT22;5880;52.342;9.662;2022-11-15T00:13:19;10.80;68.00
11647;DHT22;5880;52.342;9.662;2022-11-15T00:15:45;10.70;68.10
11647;DHT22;5880;52.342;9.662;2022-11-15T00:18:13;10.70;68.30
11647;DHT22;5880;52.342;9.662;2022-11-15T00:20:39;10.70;68.50
11647;DHT22;5880;52.342;9.662;2022-11-15T00:23:05;10.70;68.40
11647;DHT22;5880;52.342;9.662;2022-11-15T00:25:32;10.80;68.50
11647;DHT22;5880;52.342;9.662;2022-11-15T00:27:58;10.80;68.60
11647;DHT22;5880;52.342;9.662;2022-11-15T00:30:25;10.80;68.70
11647;DHT22;5880;52.342;9.662;2022-11-15T00:32:51;10.80;68.90
11647;DHT22;5880;52.342;9.662;2022-11-15T00:35:17;10.90;69.10
11647;DHT22;5880;52.342;9.662;2022-11-15T00:37:44;10.90;69.10
11647;DHT22;5880;52.342;9.662;2022-11-15T00:40:10;10.90;69.00
11647;DHT22;5880;52.342;9.662;2022-11-15T00:42:38;11.00;69.00
11647;DHT22;5880;52.342;9.662;2022-11-15T00:45:04;11.00;69.00
11647;DHT22;5880;52.342;9.662;2022-11-15T00:47:30;11.00;69.10
11647;DHT22;5880;52.342;9.662;2022-11-15T00:49:56;11.10;69.40
11647;DHT22;5880;52.342;9.662;2022-11-15T00:52:22;11.10;69.50
11647;DHT22;5880;52.342;9.662;2022-11-15T00:54:48;11.10;69.60
11647;DHT22;5880;52.342;9.662;2022-11-15T00:57:13;11.20;69.70
11647;DHT22;5880;52.342;9.662;2022-11-15T00:59:39;11.20;69.70
11647;DHT22;5880;52.342;9.662;2022-11-15T01:02:05;11.30;69.90
11647;DHT22;5880;52.342;9.662;2022-11-15T01:04:30;11.40;69.90
11647;DHT22;5880;52.342;9.662;2022-11-15T01:06:56;11.40;69.90
11647;DHT22;5880;52.342;9.662;2022-11-15T01:09:22;11.50;70.70
11647;DHT22;5880;52.342;9.662;2022-11-15T01:11:47;11.50;70.10
11647;DHT22;5880;52.342;9.662;2022-11-15T01:14:13;11.60;70.00
11647;DHT22;5880;52.342;9.662;2022-11-15T01:16:39;11.60;69.80
11647;DHT22;5880;52.342;9.662;2022-11-15T01:19:05;11.70;69.90
11647;DHT22;5880;52.342;9.662;2022-11-15T01:21:30;11.70;69.90
11647;DHT22;5880;52.342;9.662;2022-11-15T01:23:57;11.70;69.90
11647;DHT22;5880;52.342;9.662;2022-11-15T01:26:23;11.80;69.80
11647;DHT22;5880;52.342;9.662;2022-11-15T01:28:50;11.80;69.80
11647;DHT22;5880;52.342;9.662;2022-11-15T01:31:20;11.80;69.70
11647;DHT22;5880;52.342;9.662;2022-11-15T01:33:47;11.90;69.90
11647;DHT22;5880;52.342;9.662;2022-11-15T01:36:18;11.90;69.80
11647;DHT22;5880;52.342;9.662;2022-11-15T01:38:56;11.90;69.60
11647;DHT22;5880;52.342;9.662;2022-11-15T01:41:26;11.90;69.60
11647;DHT22;5880;52.342;9.662;2022-11-15T01:44:31;12.00;69.30
11647;DHT22;5880;52.342;9.662;2022-11-15T01:47:04;11.90;69.20
11647;DHT22;5880;52.342;9.662;2022-11-15T01:49:41;11.90;69.10
11647;DHT22;5880;52.342;9.662;2022-11-15T01:52:28;11.90;69.00
11647;DHT22;5880;52.342;9.662;2022-11-15T01:55:11;11.90;68.90
11647;DHT22;5880;52.342;9.662;2022-11-15T01:57:59;11.70;69.00
11647;DHT22;5880;52.342;9.662;2022-11-15T02:00:29;11.90;68.90
11647;DHT22;5880;52.342;9.662;2022-11-15T02:02:55;11.80;68.70
11647;DHT22;5880;52.342;9.662;2022-11-15T02:05:21;11.80;68.90
11647;DHT22;5880;52.342;9.662;2022-11-15T02:07:48;11.80;69.10
11647;DHT22;5880;52.342;9.662;2022-11-15T02:10:20;11.80;69.30
11647;DHT22;5880;52.342;9.662;2022-11-15T02:12:49;11.80;69.60
11647;DHT22;5880;52.342;9.662;2022-11-15T02:15:16;11.80;69.50
11647;DHT22;5880;52.342;9.662;2022-11-15T02:18:12;11.80;69.60
11647;DHT22;5880;52.342;9.662;2022-11-15T02:21:12;11.90;70.30
11647;DHT22;5880;52.342;9.662;2022-11-15T02:24:16;11.90;70.00
11647;DHT22;5880;52.342;9.662;2022-11-15T02:27:29;11.90;70.30
11647;DHT22;5880;52.342;9.662;2022-11-15T02:36:01;11.90;69.80
11647;DHT22;5880;52.342;9.662;2022-11-15T02:44:38;12.00;70.50
11647;DHT22;5880;52.342;9.662;2022-11-15T02:47:12;12.00;70.40
11647;DHT22;5880;52.342;9.662;2022-11-15T02:49:45;12.00;70.30
11647;DHT22;5880;52.342;9.662;2022-11-15T02:52:17;12.10;70.60
11647;DHT22;5880;52.342;9.662;2022-11-15T02:54:59;12.10;70.70
11647;DHT22;5880;52.342;9.662;2022-11-15T02:57:44;12.20;71.00
11647;DHT22;5880;52.342;9.662;2022-11-15T03:00:24;12.20;70.90
11647;DHT22;5880;52.342;9.662;2022-11-15T03:03:24;12.20;70.30
11647;DHT22;5880;52.342;9.662;2022-11-15T03:06:05;12.30;70.90
11647;DHT22;5880;52.342;9.662;2022-11-15T03:09:04;12.30;70.20
11647;DHT22;5880;52.342;9.662;2022-11-15T03:11:42;12.30;70.40
11647;DHT22;5880;52.342;9.662;2022-11-15T03:14:35;12.30;70.40
11647;DHT22;5880;52.342;9.662;2022-11-15T03:17:35;12.30;70.30
11647;DHT22;5880;52.342;9.662;2022-11-15T03:20:07;12.30;71.00
11647;DHT22;5880;52.342;9.662;2022-11-15T03:22:42;12.30;70.40
11647;DHT22;5880;52.342;9.662;2022-11-15T03:25:13;12.40;70.70
11647;DHT22;5880;52.342;9.662;2022-11-15T03:27:47;12.40;70.60
11647;DHT22;5880;52.342;9.662;2022-11-15T03:30:16;12.40;70.70
11647;DHT22;5880;52.342;9.662;2022-11-15T03:32:47;12.50;70.70
11647;DHT22;5880;52.342;9.662;2022-11-15T03:35:21;12.50;70.90
11647;DHT22;5880;52.342;9.662;2022-11-15T03:38:14;12.50;70.80
11647;DHT22;5880;52.342;9.662;2022-11-15T03:41:00;12.50;71.30
11647;DHT22;5880;52.342;9.662;2022-11-15T03:44:01;12.50;71.20
11647;DHT22;5880;52.342;9.662;2022-11-15T03:47:16;12.60;71.40
11647;DHT22;5880;52.342;9.662;2022-11-15T03:49:53;12.70;71.60
11647;DHT22;5880;52.342;9.662;2022-11-15T03:52:24;12.70;71.00
11647;DHT22;5880;52.342;9.662;2022-11-15T03:54:56;12.70;70.80
11647;DHT22;5880;52.342;9.662;2022-11-15T03:57:22;12.70;71.00
11647;DHT22;5880;52.342;9.662;2022-11-15T03:59:48;12.70;70.80
11647;DHT22;5880;52.342;9.662;2022-11-15T04:02:14;12.70;71.00
11647;DHT22;5880;52.342;9.662;2022-11-15T04:04:40;12.80;71.00
11647;DHT22;5880;52.342;9.662;2022-11-15T04:07:06;12.80;71.10
11647;DHT22;5880;52.342;9.662;2022-11-15T04:09:32;12.80;71.10
11647;DHT22;5880;52.342;9.662;2022-11-15T04:11:57;12.90;71.30
11647;DHT22;5880;52.342;9.662;2022-11-15T04:14:23;12.90;71.30
11647;DHT22;5880;52.342;9.662;2022-11-15T04:16:49;13.00;71.20
11647;DHT22;5880;52.342;9.662;2022-11-15T04:19:14;13.00;71.20
11647;DHT22;5880;52.342;9.662;2022-11-15T04:22:18;13.10;71.30
11647;DHT22;5880;52.342;9.662;2022-11-15T04:25:10;13.10;71.10
11647;DHT22;5880;52.342;9.662;2022-11-15T04:27:36;13.20;71.10
11647;DHT22;5880;52.342;9.662;2022-11-15T04:30:02;13.20;71.10
11647;DHT22;5880;52.342;9.662;2022-11-15T04:32:28;13.20;71.10
11647;DHT22;5880;52.342;9.662;2022-11-15T04:34:53;13.30;71.10
11647;DHT22;5880;52.342;9.662;2022-11-15T04:37:19;13.40;70.90
11647;DHT22;5880;52.342;9.662;2022-11-15T04:39:45;13.30;70.80
11647;DHT22;5880;52.342;9.662;2022-11-15T04:42:10;13.40;70.70
11647;DHT22;5880;52.342;9.662;2022-11-15T04:44:36;13.40;70.60
11647;DHT22;5880;52.342;9.662;2022-11-15T04:47:02;13.50;70.70
11647;DHT22;5880;52.342;9.662;2022-11-15T04:49:28;13.50;70.70
11647;DHT22;5880;52.342;9.662;2022-11-15T04:51:54;13.50;70.70
11647;DHT22;5880;52.342;9.662;2022-11-15T04:54:20;13.60;70.70
11647;DHT22;5880;52.342;9.662;2022-11-15T04:56:45;13.60;70.70
11647;DHT22;5880;52.342;9.662;2022-11-15T04:59:11;13.60;70.60
11647;DHT22;5880;52.342;9.662;2022-11-15T05:01:36;13.70;70.60
11647;DHT22;5880;52.342;9.662;2022-11-15T05:04:03;13.70;70.50
11647;DHT22;5880;52.342;9.662;2022-11-15T05:06:46;13.80;70.40
11647;DHT22;5880;52.342;9.662;2022-11-15T05:09:17;13.80;70.30
11647;DHT22;5880;52.342;9.662;2022-11-15T05:11:44;13.80;70.20
11647;DHT22;5880;52.342;9.662;2022-11-15T05:14:10;13.90;70.60
11647;DHT22;5880;52.342;9.662;2022-11-15T05:16:36;13.90;70.20
11647;DHT22;5880;52.342;9.662;2022-11-15T05:19:02;13.90;70.20
11647;DHT22;5880;52.342;9.662;2022-11-15T05:21:28;13.90;70.10
11647;DHT22;5880;52.342;9.662;2022-11-15T05:23:54;13.90;70.10
11647;DHT22;5880;52.342;9.662;2022-11-15T05:26:20;14.00;70.00
11647;DHT22;5880;52.342;9.662;2022-11-15T05:28:45;13.90;69.90
11647;DHT22;5880;52.342;9.662;2022-11-15T05:31:13;14.00;69.90
11647;DHT22;5880;52.342;9.662;2022-11-15T05:33:42;13.90;69.80
11647;DHT22;5880;52.342;9.662;2022-11-15T05:36:29;14.00;69.70
11647;DHT22;5880;52.342;9.662;2022-11-15T05:39:00;14.00;69.60
11647;DHT22;5880;52.342;9.662;2022-11-15T05:41:34;14.00;69.60
11647;DHT22;5880;52.342;9.662;2022-11-15T05:44:11;14.00;69.50
11647;DHT22;5880;52.342;9.662;2022-11-15T05:46:41;14.00;69.50
11647;DHT22;5880;52.342;9.662;2022-11-15T05:49:10;14.00;69.50
11647;DHT22;5880;52.342;9.662;2022-11-15T05:51:41;14.00;69.50
11647;DHT22;5880;52.342;9.662;2022-11-15T05:54:10;14.00;69.50
11647;DHT22;5880;52.342;9.662;2022-11-15T05:56:37;14.00;69.50
11647;DHT22;5880;52.342;9.662;2022-11-15T05:59:03;14.00;69.50
11647;DHT22;5880;52.342;9.662;2022-11-15T06:01:29;13.90;69.40
11647;DHT22;5880;52.342;9.662;2022-11-15T06:03:55;14.00;69.30
11647;DHT22;5880;52.342;9.662;2022-11-15T06:06:21;13.90;69.20
11647;DHT22;5880;52.342;9.662;2022-11-15T06:08:48;13.90;69.20
11647;DHT22;5880;52.342;9.662;2022-11-15T06:11:14;13.90;69.20
11647;DHT22;5880;52.342;9.662;2022-11-15T06:13:39;13.90;69.20
11647;DHT22;5880;52.342;9.662;2022-11-15T06:16:05;13.80;69.10
11647;DHT22;5880;52.342;9.662;2022-11-15T06:18:33;13.80;69.00
11647;DHT22;5880;52.342;9.662;2022-11-15T06:20:59;13.80;69.00
11647;DHT22;5880;52.342;9.662;2022-11-15T06:23:25;13.70;69.00
11647;DHT22;5880;52.342;9.662;2022-11-15T06:25:51;13.70;69.10
11647;DHT22;5880;52.342;9.662;2022-11-15T06:28:17;13.70;69.10
11647;DHT22;5880;52.342;9.662;2022-11-15T06:30:43;13.60;69.00
11647;DHT22;5880;52.342;9.662;2022-11-15T06:33:08;13.60;69.00
11647;DHT22;5880;52.342;9.662;2022-11-15T06:35:35;13.60;69.00
11647;DHT22;5880;52.342;9.662;2022-11-15T06:38:06;13.60;69.00
11647;DHT22;5880;52.342;9.662;2022-11-15T06:40:35;13.50;69.00
11647;DHT22;5880;52.342;9.662;2022-11-15T06:43:03;13.50;69.00
11647;DHT22;5880;52.342;9.662;2022-11-15T06:45:30;13.50;69.00
11647;DHT22;5880;52.342;9.662;2022-11-15T06:47:56;13.40;68.90
11647;DHT22;5880;52.342;9.662;2022-11-15T06:50:23;13.40;69.00
11647;DHT22;5880;52.342;9.662;2022-11-15T06:52:48;13.40;69.10
11647;DHT22;5880;52.342;9.662;2022-11-15T06:55:14;13.40;69.20
11647;DHT22;5880;52.342;9.662;2022-11-15T06:57:51;13.40;69.20
11647;DHT22;5880;52.342;9.662;2022-11-15T07:00:19;13.40;69.40
11647;DHT22;5880;52.342;9.662;2022-11-15T07:02:47;13.30;69.30
11647;DHT22;5880;52.342;9.662;2022-11-15T07:05:13;13.30;69.30
11647;DHT22;5880;52.342;9.662;2022-11-15T07:07:40;13.30;69.30
11647;DHT22;5880;52.342;9.662;2022-11-15T07:10:07;13.30;69.30
11647;DHT22;5880;52.342;9.662;2022-11-15T07:12:34;13.30;69.30
11647;DHT22;5880;52.342;9.662;2022-11-15T07:14:59;13.30;69.30
11647;DHT22;5880;52.342;9.662;2022-11-15T07:17:25;13.30;69.40
11647;DHT22;5880;52.342;9.662;2022-11-15T07:19:51;13.30;69.40
11647;DHT22;5880;52.342;9.662;2022-11-15T07:22:17;13.40;69.40
11647;DHT22;5880;52.342;9.662;2022-11-15T07:24:42;13.40;69.50
11647;DHT22;5880;52.342;9.662;2022-11-15T07:27:08;13.30;69.50
11647;DHT22;5880;52.342;9.662;2022-11-15T07:29:34;13.30;69.50
11647;DHT22;5880;52.342;9.662;2022-11-15T07:32:00;13.30;69.60
11647;DHT22;5880;52.342;9.662;2022-11-15T07:34:25;13.40;69.70
11647;DHT22;5880;52.342;9.662;2022-11-15T07:36:51;13.40;70.40
11647;DHT22;5880;52.342;9.662;2022-11-15T07:39:17;13.40;69.70
11647;DHT22;5880;52.342;9.662;2022-11-15T07:41:42;13.40;69.70
11647;DHT22;5880;52.342;9.662;2022-11-15T07:44:09;13.40;69.70
11647;DHT22;5880;52.342;9.662;2022-11-15T07:46:34;13.40;69.70
11647;DHT22;5880;52.342;9.662;2022-11-15T07:49:00;13.40;69.60
11647;DHT22;5880;52.342;9.662;2022-11-15T07:51:26;13.50;69.70
11647;DHT22;5880;52.342;9.662;2022-11-15T07:53:51;13.40;69.50
11647;DHT22;5880;52.342;9.662;2022-11-15T07:56:17;13.50;69.60
11647;DHT22;5880;52.342;9.662;2022-11-15T07:58:45;13.50;69.50
11647;DHT22;5880;52.342;9.662;2022-11-15T08:01:11;13.50;69.50
11647;DHT22;5880;52.342;9.662;2022-11-15T08:03:38;13.50;69.40
11647;DHT22;5880;52.342;9.662;2022-11-15T08:06:04;13.50;69.40
11647;DHT22;5880;52.342;9.662;2022-11-15T08:08:30;13.40;69.30
11647;DHT22;5880;52.342;9.662;2022-11-15T08:10:57;13.40;69.40
11647;DHT22;5880;52.342;9.662;2022-11-15T08:13:23;13.40;69.60
11647;DHT22;5880;52.342;9.662;2022-11-15T08:15:49;13.40;69.70
11647;DHT22;5880;52.342;9.662;2022-11-15T08:18:16;13.50;70.00
11647;DHT22;5880;52.342;9.662;2022-11-15T08:20:42;13.50;70.10
11647;DHT22;5880;52.342;9.662;2022-11-15T08:23:10;13.50;70.20
11647;DHT22;5880;52.342;9.662;2022-11-15T08:25:38;13.60;70.30
11647;DHT22;5880;52.342;9.662;2022-11-15T08:28:06;13.70;70.50
11647;DHT22;5880;52.342;9.662;2022-11-15T08:30:37;13.70;70.40
11647;DHT22;5880;52.342;9.662;2022-11-15T08:33:11;13.80;70.50
11647;DHT22;5880;52.342;9.662;2022-11-15T08:35:39;13.90;70.60
11647;DHT22;5880;52.342;9.662;2022-11-15T08:38:06;13.90;70.60
11647;DHT22;5880;52.342;9.662;2022-11-15T08:40:31;13.90;70.40
11647;DHT22;5880;52.342;9.662;2022-11-15T08:42:57;14.00;70.20
11647;DHT22;5880;52.342;9.662;2022-11-15T08:45:24;14.00;70.10
11647;DHT22;5880;52.342;9.662;2022-11-15T08:47:49;14.10;70.00
11647;DHT22;5880;52.342;9.662;2022-11-15T08:50:15;14.20;69.90
11647;DHT22;5880;52.342;9.662;2022-11-15T08:52:41;14.20;69.70
11647;DHT22;5880;52.342;9.662;2022-11-15T08:55:07;14.20;69.80
11647;DHT22;5880;52.342;9.662;2022-11-15T08:57:33;14.20;69.70
11647;DHT22;5880;52.342;9.662;2022-11-15T08:59:58;14.30;69.70
11647;DHT22;5880;52.342;9.662;2022-11-15T09:02:24;14.30;69.70
11647;DHT22;5880;52.342;9.662;2022-11-15T09:04:50;14.30;69.60
11647;DHT22;5880;52.342;9.662;2022-11-15T09:07:16;14.30;69.60
11647;DHT22;5880;52.342;9.662;2022-11-15T09:09:41;14.40;69.60
11647;DHT22;5880;52.342;9.662;2022-11-15T09:12:07;14.40;69.50
11647;DHT22;5880;52.342;9.662;2022-11-15T09:14:34;14.40;69.50
11647;DHT22;5880;52.342;9.662;2022-11-15T09:17:00;14.50;69.60
11647;DHT22;5880;52.342;9.662;2022-11-15T09:19:26;14.50;69.60
11647;DHT22;5880;52.342;9.662;2022-11-15T09:21:52;14.50;69.60
11647;DHT22;5880;52.342;9.662;2022-11-15T09:24:18;14.60;69.60
11647;DHT22;5880;52.342;9.662;2022-11-15T09:26:44;14.70;69.70
11647;DHT22;5880;52.342;9.662;2022-11-15T09:29:10;14.70;69.70
11647;DHT22;5880;52.342;9.662;2022-11-15T09:31:35;14.80;69.70
11647;DHT22;5880;52.342;9.662;2022-11-15T09:34:01;14.80;69.60
11647;DHT22;5880;52.342;9.662;2022-11-15T09:36:27;14.90;69.60
11647;DHT22;5880;52.342;9.662;2022-11-15T09:38:52;14.90;69.50
11647;DHT22;5880;52.342;9.662;2022-11-15T09:50:15;15.10;68.90
11647;DHT22;5880;52.342;9.662;2022-11-15T09:52:45;15.20;68.90
11647;DHT22;5880;52.342;9.662;2022-11-15T09:55:12;15.20;69.00
11647;DHT22;5880;52.342;9.662;2022-11-15T10:01:12;15.30;68.70
11647;DHT22;5880;52.342;9.662;2022-11-15T10:03:45;15.30;68.60
11647;DHT22;5880;52.342;9.662;2022-11-15T10:06:22;15.30;68.80
11647;DHT22;5880;52.342;9.662;2022-11-15T10:11:42;15.40;68.10
11647;DHT22;5880;52.342;9.662;2022-11-15T10:14:15;15.40;68.60
11647;DHT22;5880;52.342;9.662;2022-11-15T10:17:21;15.50;68.20
11647;DHT22;5880;52.342;9.662;2022-11-15T10:22:49;15.60;67.90
11647;DHT22;5880;52.342;9.662;2022-11-15T10:25:30;15.60;67.80
11647;DHT22;5880;52.342;9.662;2022-11-15T10:28:01;15.60;68.00
11647;DHT22;5880;52.342;9.662;2022-11-15T10:30:37;15.70;68.10
11647;DHT22;5880;52.342;9.662;2022-11-15T10:41:18;15.80;67.70
11647;DHT22;5880;52.342;9.662;2022-11-15T10:46:34;15.90;67.50
11647;DHT22;5880;52.342;9.662;2022-11-15T10:54:37;16.00;67.90
11647;DHT22;5880;52.342;9.662;2022-11-15T10:57:13;16.10;67.40
11647;DHT22;5880;52.342;9.662;2022-11-15T10:59:44;16.20;67.50
11647;DHT22;5880;52.342;9.662;2022-11-15T11:02:28;16.20;67.40
11647;DHT22;5880;52.342;9.662;2022-11-15T11:04:57;16.30;67.00
11647;DHT22;5880;52.342;9.662;2022-11-15T11:07:47;16.30;67.40
11647;DHT22;5880;52.342;9.662;2022-11-15T11:10:21;16.30;66.30
11647;DHT22;5880;52.342;9.662;2022-11-15T11:12:47;16.40;67.10
11647;DHT22;5880;52.342;9.662;2022-11-15T11:15:14;16.30;67.20
11647;DHT22;5880;52.342;9.662;2022-11-15T11:18:29;16.40;67.00
11647;DHT22;5880;52.342;9.662;2022-11-15T11:21:10;16.40;65.90
11647;DHT22;5880;52.342;9.662;2022-11-15T11:23:58;16.40;66.30
11647;DHT22;5880;52.342;9.662;2022-11-15T11:30:23;16.50;66.00
11647;DHT22;5880;52.342;9.662;2022-11-15T11:33:16;16.50;66.00
11647;DHT22;5880;52.342;9.662;2022-11-15T11:36:17;16.50;66.10
11647;DHT22;5880;52.342;9.662;2022-11-15T11:45:15;16.60;66.00
11647;DHT22;5880;52.342;9.662;2022-11-15T11:48:20;16.60;65.40
11647;DHT22;5880;52.342;9.662;2022-11-15T11:51:03;16.70;65.80
11647;DHT22;5880;52.342;9.662;2022-11-15T11:53:50;16.70;66.40
11647;DHT22;5880;52.342;9.662;2022-11-15T11:56:33;16.80;66.00
11647;DHT22;5880;52.342;9.662;2022-11-15T12:02:27;16.80;65.30
11647;DHT22;5880;52.342;9.662;2022-11-15T12:05:13;16.90;65.50
11647;DHT22;5880;52.342;9.662;2022-11-15T12:07:42;16.90;65.00
11647;DHT22;5880;52.342;9.662;2022-11-15T12:10:29;17.00;65.50
11647;DHT22;5880;52.342;9.662;2022-11-15T12:13:09;17.00;64.60
11647;DHT22;5880;52.342;9.662;2022-11-15T12:15:45;17.10;64.90
11647;DHT22;5880;52.342;9.662;2022-11-15T12:18:19;17.00;65.00
11647;DHT22;5880;52.342;9.662;2022-11-15T12:21:01;17.10;65.50
11647;DHT22;5880;52.342;9.662;2022-11-15T12:23:39;17.10;64.70
11647;DHT22;5880;52.342;9.662;2022-11-15T12:26:16;17.10;64.70
11647;DHT22;5880;52.342;9.662;2022-11-15T12:28:59;17.00;64.80
11647;DHT22;5880;52.342;9.662;2022-11-15T12:34:46;17.00;64.60
11647;DHT22;5880;52.342;9.662;2022-11-15T12:36:48;17.00;64.90
11647;DHT22;5880;52.342;9.662;2022-11-15T12:39:16;17.00;65.00
11647;DHT22;5880;52.342;9.662;2022-11-15T13:02:36;17.00;63.00
11647;DHT22;5880;52.342;9.662;2022-11-15T13:07:56;17.00;63.30
11647;DHT22;5880;52.342;9.662;2022-11-15T13:13:08;17.00;63.70
11647;DHT22;5880;52.342;9.662;2022-11-15T13:15:51;17.00;63.30
11647;DHT22;5880;52.342;9.662;2022-11-15T13:18:35;16.90;63.80
11647;DHT22;5880;52.342;9.662;2022-11-15T13:21:20;17.00;63.20
11647;DHT22;5880;52.342;9.662;2022-11-15T13:24:16;17.00;63.30
11647;DHT22;5880;52.342;9.662;2022-11-15T13:26:42;16.90;63.30
11647;DHT22;5880;52.342;9.662;2022-11-15T13:29:18;16.90;63.80
11647;DHT22;5880;52.342;9.662;2022-11-15T13:31:46;16.90;62.90
11647;DHT22;5880;52.342;9.662;2022-11-15T13:34:28;16.90;63.60
11647;DHT22;5880;52.342;9.662;2022-11-15T13:36:58;16.90;63.20
11647;DHT22;5880;52.342;9.662;2022-11-15T13:39:32;16.90;63.80
11647;DHT22;5880;52.342;9.662;2022-11-15T13:42:01;17.00;63.40
11647;DHT22;5880;52.342;9.662;2022-11-15T13:44:30;16.90;63.70
11647;DHT22;5880;52.342;9.662;2022-11-15T13:47:05;17.00;63.30
11647;DHT22;5880;52.342;9.662;2022-11-15T13:49:38;17.00;63.30
11647;DHT22;5880;52.342;9.662;2022-11-15T13:52:06;17.00;63.70
11647;DHT22;5880;52.342;9.662;2022-11-15T13:54:59;16.90;63.50
11647;DHT22;5880;52.342;9.662;2022-11-15T13:57:44;17.00;63.20
11647;DHT22;5880;52.342;9.662;2022-11-15T14:03:26;16.90;62.60
11647;DHT22;5880;52.342;9.662;2022-11-15T14:06:09;17.00;63.00
11647;DHT22;5880;52.342;9.662;2022-11-15T14:08:41;17.00;62.50
11647;DHT22;5880;52.342;9.662;2022-11-15T14:11:22;17.00;63.30
11647;DHT22;5880;52.342;9.662;2022-11-15T14:16:35;16.90;62.40
11647;DHT22;5880;52.342;9.662;2022-11-15T14:19:05;16.90;62.90
11647;DHT22;5880;52.342;9.662;2022-11-15T14:21:34;16.90;62.90
11647;DHT22;5880;52.342;9.662;2022-11-15T14:24:21;16.80;63.00
11647;DHT22;5880;52.342;9.662;2022-11-15T14:26:47;16.80;62.10
11647;DHT22;5880;52.342;9.662;2022-11-15T14:29:27;16.80;62.70
11647;DHT22;5880;52.342;9.662;2022-11-15T14:32:23;16.70;62.30
11647;DHT22;5880;52.342;9.662;2022-11-15T14:34:57;16.70;62.50
11647;DHT22;5880;52.342;9.662;2022-11-15T14:37:26;16.60;62.80
11647;DHT22;5880;52.342;9.662;2022-11-15T14:39:55;16.60;62.90
11647;DHT22;5880;52.342;9.662;2022-11-15T14:42:22;16.60;63.00
11647;DHT22;5880;52.342;9.662;2022-11-15T14:44:49;16.50;63.10
11647;DHT22;5880;52.342;9.662;2022-11-15T14:47:15;16.50;63.10
11647;DHT22;5880;52.342;9.662;2022-11-15T14:49:41;16.40;63.00
11647;DHT22;5880;52.342;9.662;2022-11-15T14:52:30;16.40;63.00
11647;DHT22;5880;52.342;9.662;2022-11-15T14:55:02;16.40;62.60
11647;DHT22;5880;52.342;9.662;2022-11-15T14:57:35;16.40;63.00
11647;DHT22;5880;52.342;9.662;2022-11-15T15:00:02;16.30;63.10
11647;DHT22;5880;52.342;9.662;2022-11-15T15:02:28;16.30;63.20
11647;DHT22;5880;52.342;9.662;2022-11-15T15:04:54;16.20;63.30
11647;DHT22;5880;52.342;9.662;2022-11-15T15:07:20;16.20;63.30
11647;DHT22;5880;52.342;9.662;2022-11-15T15:09:46;16.20;63.40
11647;DHT22;5880;52.342;9.662;2022-11-15T15:12:18;16.20;63.40
11647;DHT22;5880;52.342;9.662;2022-11-15T15:14:47;16.20;63.40
11647;DHT22;5880;52.342;9.662;2022-11-15T15:17:15;16.20;63.40
11647;DHT22;5880;52.342;9.662;2022-11-15T15:19:41;16.20;63.50
11647;DHT22;5880;52.342;9.662;2022-11-15T15:22:15;16.20;63.50
11647;DHT22;5880;52.342;9.662;2022-11-15T15:24:43;16.20;63.20
11647;DHT22;5880;52.342;9.662;2022-11-15T15:27:10;16.10;63.50
11647;DHT22;5880;52.342;9.662;2022-11-15T15:29:36;16.10;63.60
11647;DHT22;5880;52.342;9.662;2022-11-15T15:32:02;16.10;63.60
11647;DHT22;5880;52.342;9.662;2022-11-15T15:34:28;16.10;63.60
11647;DHT22;5880;52.342;9.662;2022-11-15T15:37:23;16.10;63.70
11647;DHT22;5880;52.342;9.662;2022-11-15T15:39:52;16.10;63.30
11647;DHT22;5880;52.342;9.662;2022-11-15T15:42:19;16.10;63.60
11647;DHT22;5880;52.342;9.662;2022-11-15T15:44:47;16.10;63.70
11647;DHT22;5880;52.342;9.662;2022-11-15T15:47:19;16.10;63.60
11647;DHT22;5880;52.342;9.662;2022-11-15T15:49:47;16.10;63.60
11647;DHT22;5880;52.342;9.662;2022-11-15T15:52:14;16.10;63.70
11647;DHT22;5880;52.342;9.662;2022-11-15T15:54:40;16.10;64.40
11647;DHT22;5880;52.342;9.662;2022-11-15T15:57:08;16.10;63.60
11647;DHT22;5880;52.342;9.662;2022-11-15T15:59:36;16.10;63.50
11647;DHT22;5880;52.342;9.662;2022-11-15T16:02:02;16.10;63.60
11647;DHT22;5880;52.342;9.662;2022-11-15T16:04:28;16.10;63.50
11647;DHT22;5880;52.342;9.662;2022-11-15T16:07:01;16.10;63.60
11647;DHT22;5880;52.342;9.662;2022-11-15T16:09:28;16.10;63.30
11647;DHT22;5880;52.342;9.662;2022-11-15T16:12:12;16.00;63.40
11647;DHT22;5880;52.342;9.662;2022-11-15T16:14:37;16.00;63.30
11647;DHT22;5880;52.342;9.662;2022-11-15T16:17:03;16.00;63.30
11647;DHT22;5880;52.342;9.662;2022-11-15T16:19:29;16.00;63.30
11647;DHT22;5880;52.342;9.662;2022-11-15T16:21:55;15.90;63.30
11647;DHT22;5880;52.342;9.662;2022-11-15T16:24:21;15.90;63.30
11647;DHT22;5880;52.342;9.662;2022-11-15T16:26:49;15.90;63.30
11647;DHT22;5880;52.342;9.662;2022-11-15T16:29:16;15.90;63.40
11647;DHT22;5880;52.342;9.662;2022-11-15T16:31:42;15.90;63.50
11647;DHT22;5880;52.342;9.662;2022-11-15T16:34:07;15.90;63.40
11647;DHT22;5880;52.342;9.662;2022-11-15T16:36:34;15.90;63.50
11647;DHT22;5880;52.342;9.662;2022-11-15T16:39:01;15.90;63.50
11647;DHT22;5880;52.342;9.662;2022-11-15T16:41:30;15.90;63.50
11647;DHT22;5880;52.342;9.662;2022-11-15T16:43:56;15.90;63.50
11647;DHT22;5880;52.342;9.662;2022-11-15T16:46:25;15.90;63.50
11647;DHT22;5880;52.342;9.662;2022-11-15T16:48:52;15.90;63.50
11647;DHT22;5880;52.342;9.662;2022-11-15T16:51:19;15.90;63.50
11647;DHT22;5880;52.342;9.662;2022-11-15T16:53:45;15.90;63.50
11647;DHT22;5880;52.342;9.662;2022-11-15T16:56:25;15.90;64.20
11647;DHT22;5880;52.342;9.662;2022-11-15T16:58:52;15.90;63.00
11647;DHT22;5880;52.342;9.662;2022-11-15T17:01:33;16.00;63.30
11647;DHT22;5880;52.342;9.662;2022-11-15T17:04:01;16.20;63.10
11647;DHT22;5880;52.342;9.662;2022-11-15T17:06:41;15.90;63.20
11647;DHT22;5880;52.342;9.662;2022-11-15T17:09:17;15.90;63.20
11647;DHT22;5880;52.342;9.662;2022-11-15T17:11:44;15.90;63.10
11647;DHT22;5880;52.342;9.662;2022-11-15T17:14:11;15.90;63.30
11647;DHT22;5880;52.342;9.662;2022-11-15T17:16:38;15.90;63.30
11647;DHT22;5880;52.342;9.662;2022-11-15T17:19:11;15.90;63.40
11647;DHT22;5880;52.342;9.662;2022-11-15T17:21:39;15.90;63.50
11647;DHT22;5880;52.342;9.662;2022-11-15T17:24:05;15.80;63.40
11647;DHT22;5880;52.342;9.662;2022-11-15T17:26:31;15.80;63.40
11647;DHT22;5880;52.342;9.662;2022-11-15T17:28:56;15.80;63.50
11647;DHT22;5880;52.342;9.662;2022-11-15T17:31:23;15.70;63.60
11647;DHT22;5880;52.342;9.662;2022-11-15T17:33:49;15.70;63.60
11647;DHT22;5880;52.342;9.662;2022-11-15T17:36:15;15.70;63.70
11647;DHT22;5880;52.342;9.662;2022-11-15T17:38:41;15.60;63.60
11647;DHT22;5880;52.342;9.662;2022-11-15T17:41:13;15.60;63.70
11647;DHT22;5880;52.342;9.662;2022-11-15T17:43:39;15.60;63.90
11647;DHT22;5880;52.342;9.662;2022-11-15T17:46:11;15.60;63.90